Time;durP1;ratioP1;P1;durP2;ratioP2;P2;SDS_P1;SDS_P2;PMS_P1;PMS_P2;Temp;Humidity;BMP_temperature;BMP_pressure;BME280_temperature;BME280_humidity;BME280_pressure;Samples;Min_cycle;Max_cycle;Signal;HPM_P1;HPM_P2
2022/09/21 00:01:21;;;;;;;0.70;0.70;;;3.10;99.90;;;;;;5014345;28;20285;-67
2022/09/21 00:03:51;;;;;;;0.70;0.70;;;3.10;99.90;;;;;;5006767;28;20203;-67
2022/09/21 00:06:20;;;;;;;0.80;0.80;;;3.10;99.90;;;;;;4994781;28;20222;-67
2022/09/21 00:08:46;;;;;;;0.60;0.60;;;3.10;99.90;;;;;;4994769;28;20219;-67
2022/09/21 00:11:17;;;;;;;0.50;0.50;;;3.10;99.90;;;;;;5009745;28;20199;-67
2022/09/21 00:13:45;;;;;;;0.70;0.70;;;3.10;99.90;;;;;;4994544;28;20188;-67
2022/09/21 00:16:12;;;;;;;0.60;0.60;;;3.10;99.90;;;;;;4994683;28;20274;-67
2022/09/21 00:18:37;;;;;;;0.70;0.70;;;3.10;99.90;;;;;;4994463;28;20200;-67
2022/09/21 00:21:08;;;;;;;1.08;1.05;;;3.10;99.90;;;;;;4994530;28;20180;-67
2022/09/21 00:23:38;;;;;;;0.65;0.65;;;3.10;99.90;;;;;;4993263;28;20223;-67
2022/09/21 00:26:10;;;;;;;0.80;0.80;;;3.10;99.90;;;;;;4994398;28;20210;-67
2022/09/21 00:28:36;;;;;;;0.75;0.75;;;3.10;99.90;;;;;;4994351;28;20195;-67
2022/09/21 00:31:07;;;;;;;0.60;0.60;;;3.10;99.90;;;;;;5012750;28;20202;-67
2022/09/21 00:33:33;;;;;;;0.57;0.57;;;3.10;99.90;;;;;;5013804;28;20190;-67
2022/09/21 00:36:08;;;;;;;0.60;0.60;;;3.10;99.90;;;;;;5014014;28;20195;-67
2022/09/21 00:38:35;;;;;;;0.60;0.60;;;3.00;99.90;;;;;;5012450;28;20292;-67
2022/09/21 00:41:01;;;;;;;0.70;0.70;;;3.00;99.90;;;;;;5013781;28;20199;-67
2022/09/21 00:43:27;;;;;;;0.70;0.70;;;3.00;99.90;;;;;;5013432;28;20213;-67
2022/09/21 00:46:02;;;;;;;0.60;0.60;;;3.00;99.90;;;;;;5013328;28;20203;-67
2022/09/21 00:48:29;;;;;;;0.70;0.70;;;2.90;99.90;;;;;;5013340;28;20190;-67
2022/09/21 00:51:00;;;;;;;0.60;0.60;;;2.90;99.90;;;;;;5014010;28;20241;-67
2022/09/21 00:53:27;;;;;;;0.60;0.60;;;2.90;99.90;;;;;;5013744;28;20202;-67
2022/09/21 00:55:55;;;;;;;0.63;0.63;;;2.90;99.90;;;;;;5028872;28;20670;-67
2022/09/21 00:58:47;;;;;;;0.70;0.70;;;2.80;99.90;;;;;;5013390;28;20294;-67
2022/09/21 01:01:15;;;;;;;0.60;0.60;;;2.80;99.90;;;;;;4991755;28;20242;-67
2022/09/21 01:03:44;;;;;;;0.60;0.60;;;2.70;99.90;;;;;;4993495;28;20246;-66
2022/09/21 01:06:11;;;;;;;0.60;0.60;;;2.70;99.90;;;;;;4993799;28;20195;-66
2022/09/21 01:08:39;;;;;;;0.57;0.57;;;2.70;99.90;;;;;;4993988;28;20551;-66
2022/09/21 01:11:30;;;;;;;0.60;0.60;;;2.70;99.90;;;;;;4993806;28;20718;-66
2022/09/21 01:14:14;;;;;;;0.65;0.65;;;2.80;99.90;;;;;;4993734;28;20659;-66
2022/09/21 01:16:54;;;;;;;0.65;0.65;;;2.80;99.90;;;;;;4993458;28;20200;-66
2022/09/21 01:19:33;;;;;;;0.60;0.60;;;2.80;99.90;;;;;;4993348;28;20234;-66
2022/09/21 01:22:02;;;;;;;0.63;0.63;;;2.90;99.90;;;;;;4993428;28;20552;-66
2022/09/21 01:24:56;;;;;;;0.63;0.63;;;2.90;99.90;;;;;;4993207;28;20211;-66
2022/09/21 01:27:42;;;;;;;0.60;0.60;;;2.90;99.90;;;;;;5012499;28;20252;-66
2022/09/21 01:30:12;;;;;;;0.50;0.50;;;3.00;99.90;;;;;;5013024;28;20654;-66
2022/09/21 01:32:45;;;;;;;0.60;0.60;;;3.00;99.90;;;;;;5012980;28;20240;-66
2022/09/21 01:35:23;;;;;;;0.68;0.68;;;3.00;99.90;;;;;;5012730;28;20195;-66
2022/09/21 01:38:00;;;;;;;0.57;0.57;;;3.10;99.90;;;;;;5012916;28;20780;-66
2022/09/21 01:40:40;;;;;;;0.60;0.60;;;3.10;99.90;;;;;;5012713;28;20194;-66
2022/09/21 01:43:12;;;;;;;0.60;0.60;;;3.10;99.90;;;;;;5012953;28;20252;-66
2022/09/21 01:45:41;;;;;;;0.60;0.60;;;3.10;99.90;;;;;;5025992;28;20210;-66
2022/09/21 01:48:08;;;;;;;0.68;0.68;;;3.10;99.90;;;;;;5032694;28;20275;-66
2022/09/21 01:50:37;;;;;;;0.60;0.60;;;3.20;99.90;;;;;;5032552;28;20193;-66
2022/09/21 01:53:18;;;;;;;0.60;0.60;;;3.20;99.90;;;;;;5032594;28;20287;-66
2022/09/21 01:55:52;;;;;;;0.60;0.60;;;3.20;99.90;;;;;;5026417;28;20749;-66
2022/09/21 01:58:32;;;;;;;0.70;0.70;;;3.20;99.90;;;;;;4993256;28;20218;-66
2022/09/21 02:00:59;;;;;;;0.60;0.60;;;3.20;99.90;;;;;;4995336;28;20681;-66
2022/09/21 02:03:27;;;;;;;0.60;0.60;;;3.20;99.90;;;;;;5012534;28;20750;-66
2022/09/21 02:05:54;;;;;;;0.60;0.60;;;3.10;99.90;;;;;;5012737;28;20195;-66
2022/09/21 02:08:20;;;;;;;0.60;0.60;;;3.10;99.90;;;;;;5012615;28;20213;-67
2022/09/21 02:10:51;;;;;;;0.60;0.60;;;3.10;99.90;;;;;;5012714;28;20561;-66
2022/09/21 02:13:19;;;;;;;0.70;0.70;;;3.00;99.90;;;;;;5011374;28;20198;-66
2022/09/21 02:15:48;;;;;;;0.80;0.80;;;3.00;99.90;;;;;;5027886;28;20571;-66
2022/09/21 02:18:57;;;;;;;0.70;0.70;;;2.90;99.90;;;;;;5012713;28;20199;-66
2022/09/21 02:21:33;;;;;;;0.65;0.65;;;2.90;99.90;;;;;;5012104;28;20661;-67
2022/09/21 02:24:11;;;;;;;0.60;0.60;;;2.80;99.90;;;;;;5012316;28;20701;-67
2022/09/21 02:26:52;;;;;;;0.57;0.57;;;2.80;99.90;;;;;;5012446;28;20183;-67
2022/09/21 02:29:18;;;;;;;0.60;0.60;;;2.80;99.90;;;;;;5012491;28;20199;-67
2022/09/21 02:31:54;;;;;;;0.68;0.68;;;2.70;99.90;;;;;;5012446;28;20198;-67
2022/09/21 02:35:05;;;;;;;0.70;0.70;;;2.60;99.90;;;;;;5012462;28;20657;-67
2022/09/21 02:37:43;;;;;;;0.57;0.57;;;2.60;99.90;;;;;;4990541;28;20267;-67
2022/09/21 02:40:29;;;;;;;0.68;0.68;;;2.50;99.90;;;;;;4991011;28;20294;-67
2022/09/21 02:43:02;;;;;;;0.70;0.70;;;2.50;99.90;;;;;;5006639;28;20265;-67
2022/09/21 02:45:33;;;;;;;0.70;0.70;;;2.40;99.90;;;;;;5012071;28;20235;-67
2022/09/21 02:48:07;;;;;;;0.70;0.70;;;2.40;99.90;;;;;;5015062;28;20229;-67
2022/09/21 02:50:54;;;;;;;0.70;0.70;;;2.30;99.90;;;;;;5015742;28;20557;-67
2022/09/21 02:53:30;;;;;;;0.50;0.50;;;2.30;99.90;;;;;;5001936;28;20222;-67
2022/09/21 02:56:02;;;;;;;0.70;0.70;;;2.30;99.90;;;;;;4996119;28;20294;-67
2022/09/21 02:58:29;;;;;;;0.70;0.70;;;2.30;99.90;;;;;;5027611;28;20215;-67
2022/09/21 03:00:56;;;;;;;0.65;0.65;;;2.30;99.90;;;;;;5011006;28;20637;-66
2022/09/21 03:03:23;;;;;;;0.90;0.90;;;2.30;99.90;;;;;;5012092;28;20214;-67
2022/09/21 03:05:52;;;;;;;0.60;0.60;;;2.30;99.90;;;;;;5014301;28;20651;-67
2022/09/21 03:08:18;;;;;;;0.75;0.75;;;2.30;99.90;;;;;;5015499;28;20195;-67
2022/09/21 03:10:45;;;;;;;0.70;0.70;;;2.30;99.90;;;;;;5015276;28;20214;-67
2022/09/21 03:13:11;;;;;;;0.70;0.70;;;2.30;99.90;;;;;;5015517;28;20231;-67
2022/09/21 03:15:38;;;;;;;0.73;0.73;;;2.20;99.90;;;;;;5015275;28;20199;-67
2022/09/21 03:18:05;;;;;;;0.68;0.68;;;2.10;99.90;;;;;;5014445;28;20249;-67
2022/09/21 03:20:32;;;;;;;0.70;0.70;;;2.10;99.90;;;;;;5015003;28;20329;-67
2022/09/21 03:22:59;;;;;;;0.60;0.60;;;2.00;99.90;;;;;;5015123;28;20241;-67
2022/09/21 03:25:25;;;;;;;0.60;0.60;;;2.00;99.90;;;;;;5015025;28;20199;-67
2022/09/21 03:27:52;;;;;;;0.60;0.60;;;2.00;99.90;;;;;;5015252;28;20234;-67
2022/09/21 03:30:19;;;;;;;0.85;0.85;;;1.90;99.90;;;;;;5015129;28;20201;-67
2022/09/21 03:32:47;;;;;;;0.60;0.60;;;1.90;99.90;;;;;;5014906;28;20237;-67
2022/09/21 03:35:13;;;;;;;0.70;0.70;;;1.90;99.90;;;;;;5015131;28;20295;-68
2022/09/21 03:37:39;;;;;;;0.50;0.50;;;1.90;99.90;;;;;;5014758;28;20624;-67
2022/09/21 03:40:05;;;;;;;0.60;0.60;;;1.90;99.90;;;;;;5015037;28;20198;-67
2022/09/21 03:42:30;;;;;;;0.50;0.50;;;1.90;99.90;;;;;;5014772;28;20201;-67
2022/09/21 03:44:56;;;;;;;0.52;0.52;;;1.90;99.90;;;;;;5014665;28;20293;-67
2022/09/21 03:47:22;;;;;;;0.50;0.50;;;1.90;99.90;;;;;;5014640;28;20250;-67
2022/09/21 03:49:47;;;;;;;0.47;0.47;;;1.90;99.90;;;;;;5014594;28;20191;-67
2022/09/21 03:52:13;;;;;;;0.70;0.70;;;1.90;99.90;;;;;;5014848;28;20274;-67
2022/09/21 03:54:39;;;;;;;0.60;0.60;;;1.90;99.90;;;;;;5014522;28;20289;-67
2022/09/21 03:57:04;;;;;;;0.80;0.80;;;1.90;99.90;;;;;;5014671;28;20230;-67
2022/09/21 03:59:30;;;;;;;0.60;0.60;;;1.80;99.90;;;;;;5014242;28;20640;-67
2022/09/21 04:01:56;;;;;;;0.63;0.63;;;1.80;99.90;;;;;;5014412;28;20207;-67
2022/09/21 04:04:21;;;;;;;0.50;0.50;;;1.70;99.90;;;;;;5014209;28;20604;-67
2022/09/21 04:06:47;;;;;;;1.10;1.02;;;1.70;99.90;;;;;;5028895;28;20570;-67
2022/09/21 04:09:12;;;;;;;0.70;0.70;;;1.70;99.90;;;;;;5013718;28;20608;-67
2022/09/21 04:11:38;;;;;;;0.70;0.70;;;1.60;99.90;;;;;;5014210;28;20233;-67
2022/09/21 04:14:04;;;;;;;0.60;0.60;;;1.60;99.90;;;;;;5013996;28;20199;-67
2022/09/21 04:16:30;;;;;;;0.60;0.60;;;1.60;99.90;;;;;;5014225;28;20227;-66
2022/09/21 04:18:56;;;;;;;0.60;0.60;;;1.50;99.90;;;;;;5014368;28;20202;-67
2022/09/21 04:21:21;;;;;;;0.50;0.50;;;1.50;99.90;;;;;;5013859;28;20285;-67
2022/09/21 04:23:48;;;;;;;3.22;1.75;;;1.50;99.90;;;;;;5013920;28;20254;-67
2022/09/21 04:26:26;;;;;;;0.80;0.80;;;1.50;99.90;;;;;;5014013;28;20198;-67
2022/09/21 04:28:53;;;;;;;0.60;0.60;;;1.50;99.90;;;;;;5014036;28;20274;-67
2022/09/21 04:31:20;;;;;;;0.70;0.70;;;1.40;99.90;;;;;;5012560;28;20205;-67
2022/09/21 04:33:51;;;;;;;0.77;0.77;;;1.40;99.90;;;;;;5013844;28;20557;-67
2022/09/21 04:36:17;;;;;;;0.70;0.70;;;1.40;99.90;;;;;;5013763;28;20206;-67
2022/09/21 04:38:43;;;;;;;0.60;0.60;;;1.40;99.90;;;;;;5013659;28;20191;-67
2022/09/21 04:41:09;;;;;;;1.55;1.30;;;1.40;99.90;;;;;;5013711;28;20199;-66
2022/09/21 04:43:35;;;;;;;0.80;0.80;;;1.40;99.90;;;;;;5013426;28;20206;-67
2022/09/21 04:46:09;;;;;;;0.77;0.77;;;1.30;99.90;;;;;;4997969;28;20203;-67
2022/09/21 04:48:34;;;;;;;0.60;0.60;;;1.30;99.90;;;;;;4993818;28;20187;-67
2022/09/21 04:51:01;;;;;;;0.70;0.70;;;1.30;99.90;;;;;;4994077;28;20199;-67
2022/09/21 04:53:28;;;;;;;0.60;0.60;;;1.30;99.90;;;;;;4994061;28;20694;-67
2022/09/21 04:55:54;;;;;;;0.60;0.60;;;1.30;99.90;;;;;;5009119;28;20671;-67
2022/09/21 04:58:20;;;;;;;0.60;0.60;;;1.30;99.90;;;;;;4993760;28;20558;-67
2022/09/21 05:00:51;;;;;;;0.52;0.52;;;1.30;99.90;;;;;;4993884;28;20203;-67
2022/09/21 05:03:20;;;;;;;0.60;0.60;;;1.30;99.90;;;;;;4998331;28;20656;-67
2022/09/21 05:05:48;;;;;;;0.60;0.60;;;1.30;99.90;;;;;;5032976;28;20623;-67
2022/09/21 05:08:14;;;;;;;0.55;0.55;;;1.30;99.90;;;;;;5033011;28;20202;-67
2022/09/21 05:10:40;;;;;;;0.60;0.60;;;1.30;99.90;;;;;;5025946;28;20234;-67
2022/09/21 05:13:06;;;;;;;0.65;0.65;;;1.30;99.90;;;;;;5013223;28;20559;-67
2022/09/21 05:15:31;;;;;;;0.60;0.60;;;1.40;99.90;;;;;;5012965;28;20206;-67
2022/09/21 05:17:57;;;;;;;0.60;0.60;;;1.40;99.90;;;;;;5013216;28;20198;-67
2022/09/21 05:20:23;;;;;;;0.68;0.68;;;1.40;99.90;;;;;;5012978;28;20278;-67
2022/09/21 05:22:48;;;;;;;0.63;0.63;;;1.40;99.90;;;;;;5012851;28;20234;-67
2022/09/21 05:25:14;;;;;;;0.70;0.70;;;1.50;99.90;;;;;;5012930;28;20207;-67
2022/09/21 05:27:40;;;;;;;0.65;0.65;;;1.50;99.90;;;;;;5012830;28;20231;-67
2022/09/21 05:30:07;;;;;;;0.50;0.50;;;1.50;99.90;;;;;;5024251;28;20205;-67
2022/09/21 05:32:40;;;;;;;0.60;0.60;;;1.60;99.90;;;;;;5032495;28;20562;-67
2022/09/21 05:35:30;;;;;;;0.60;0.60;;;1.70;99.90;;;;;;5032700;28;20224;-67
2022/09/21 05:38:03;;;;;;;0.70;0.70;;;1.80;99.90;;;;;;5032666;28;20194;-67
2022/09/21 05:40:29;;;;;;;0.70;0.70;;;1.90;99.90;;;;;;5030470;28;20202;-67
2022/09/21 05:42:55;;;;;;;0.60;0.60;;;2.00;99.90;;;;;;4993214;28;20202;-67
2022/09/21 05:45:22;;;;;;;0.63;0.63;;;2.00;99.90;;;;;;4992994;28;20206;-66
2022/09/21 05:48:08;;;;;;;1.42;1.33;;;2.10;99.90;;;;;;4993320;28;20274;-67
2022/09/21 05:50:54;;;;;;;0.55;0.55;;;2.20;99.90;;;;;;4993135;28;20191;-67
2022/09/21 05:53:48;;;;;;;0.80;0.80;;;2.30;99.90;;;;;;4993192;28;20191;-67
2022/09/21 05:56:29;;;;;;;1.42;1.08;;;2.50;99.90;;;;;;4993134;28;20188;-67
2022/09/21 05:59:19;;;;;;;0.60;0.60;;;2.50;99.90;;;;;;4993040;28;20250;-67
2022/09/21 06:02:09;;;;;;;0.70;0.70;;;2.70;99.90;;;;;;5024527;28;20206;-67
2022/09/21 06:04:35;;;;;;;0.70;0.70;;;2.80;99.90;;;;;;4992814;28;20204;-67
2022/09/21 06:07:01;;;;;;;0.65;0.65;;;2.90;99.90;;;;;;4999113;28;20513;-67
2022/09/21 06:09:26;;;;;;;0.60;0.60;;;3.00;99.90;;;;;;5012509;28;20217;-67
2022/09/21 06:11:52;;;;;;;0.80;0.80;;;3.20;99.90;;;;;;5012588;28;20194;-67
2022/09/21 06:14:24;;;;;;;0.80;0.80;;;3.20;99.90;;;;;;5012543;28;20201;-67
2022/09/21 06:16:51;;;;;;;0.63;0.63;;;3.40;99.90;;;;;;5027648;28;20214;-67
2022/09/21 06:19:17;;;;;;;0.60;0.60;;;3.50;99.90;;;;;;5012608;28;20195;-67
2022/09/21 06:21:43;;;;;;;0.85;0.85;;;3.60;99.90;;;;;;5012860;28;20670;-67
2022/09/21 06:24:09;;;;;;;0.70;0.70;;;3.70;99.90;;;;;;5016217;28;20330;-67
2022/09/21 06:26:35;;;;;;;2.22;1.30;;;3.80;99.90;;;;;;5015969;28;20706;-67
2022/09/21 06:29:00;;;;;;;0.68;0.68;;;3.90;99.90;;;;;;5016249;28;20285;-67
2022/09/21 06:31:27;;;;;;;0.82;0.82;;;4.00;99.90;;;;;;5016060;28;20190;-67
2022/09/21 06:33:52;;;;;;;0.70;0.70;;;4.10;99.90;;;;;;5016147;28;20195;-67
2022/09/21 06:36:18;;;;;;;0.60;0.60;;;4.30;99.90;;;;;;5031158;28;20203;-67
2022/09/21 06:38:44;;;;;;;0.60;0.60;;;4.40;99.90;;;;;;4998675;28;20206;-68
2022/09/21 06:41:10;;;;;;;0.90;0.90;;;4.50;99.90;;;;;;4996443;28;20195;-67
2022/09/21 06:43:35;;;;;;;0.68;0.68;;;4.60;99.90;;;;;;4996148;28;20218;-68
2022/09/21 06:46:02;;;;;;;0.80;0.80;;;4.80;99.90;;;;;;4996073;28;20647;-67
2022/09/21 06:48:29;;;;;;;0.50;0.50;;;4.90;99.90;;;;;;4996203;28;20547;-67
2022/09/21 06:51:03;;;;;;;0.70;0.70;;;5.00;99.90;;;;;;4996347;28;20219;-67
2022/09/21 06:53:31;;;;;;;0.70;0.70;;;5.30;99.90;;;;;;4996020;28;20598;-67
2022/09/21 06:56:08;;;;;;;0.70;0.70;;;5.40;99.90;;;;;;5000056;28;20203;-68
2022/09/21 06:58:36;;;;;;;0.57;0.57;;;5.60;99.90;;;;;;5014200;28;20664;-68
2022/09/21 07:01:06;;;;;;;0.60;0.60;;;5.80;99.90;;;;;;5015404;28;20194;-67
2022/09/21 07:03:31;;;;;;;0.63;0.63;;;6.00;99.90;;;;;;5014308;28;20206;-68
2022/09/21 07:05:57;;;;;;;3.60;3.13;;;6.20;99.90;;;;;;5015586;28;20200;-67
2022/09/21 07:08:23;;;;;;;0.85;0.80;;;6.30;99.90;;;;;;5015221;28;20187;-67
2022/09/21 07:10:49;;;;;;;0.70;0.70;;;6.50;99.90;;;;;;5015527;28;20260;-67
2022/09/21 07:13:16;;;;;;;0.60;0.60;;;6.60;99.90;;;;;;5015349;28;20203;-68
2022/09/21 07:15:42;;;;;;;0.70;0.70;;;6.80;99.90;;;;;;5015121;28;20650;-68
2022/09/21 07:18:14;;;;;;;1.52;1.42;;;7.00;99.90;;;;;;5015193;28;20357;-67
2022/09/21 07:20:40;;;;;;;0.60;0.60;;;7.10;99.90;;;;;;5015103;28;20289;-68
2022/09/21 07:23:11;;;;;;;0.90;0.90;;;7.30;99.90;;;;;;5030098;28;20273;-67
2022/09/21 07:25:36;;;;;;;0.70;0.70;;;7.50;99.90;;;;;;5015003;28;20206;-68
2022/09/21 07:28:02;;;;;;;0.70;0.70;;;7.60;99.90;;;;;;5013968;28;20266;-67
2022/09/21 07:30:28;;;;;;;0.70;0.70;;;7.60;99.90;;;;;;5013518;28;20564;-67
2022/09/21 07:32:53;;;;;;;0.60;0.60;;;7.70;99.90;;;;;;5014316;28;20190;-67
2022/09/21 07:35:19;;;;;;;0.70;0.70;;;7.70;99.90;;;;;;5014833;28;20206;-67
2022/09/21 07:37:45;;;;;;;2.05;1.13;;;7.70;99.90;;;;;;5014801;28;20197;-67
2022/09/21 07:40:10;;;;;;;0.60;0.60;;;7.70;99.90;;;;;;5014891;28;20557;-67
2022/09/21 07:42:36;;;;;;;0.70;0.70;;;7.60;99.90;;;;;;5014575;28;20191;-67
2022/09/21 07:45:02;;;;;;;0.70;0.70;;;7.60;99.90;;;;;;5003316;28;20203;-67
2022/09/21 07:47:28;;;;;;;0.70;0.70;;;7.70;99.90;;;;;;4995042;28;20678;-67
2022/09/21 07:49:54;;;;;;;0.70;0.70;;;7.70;99.90;;;;;;5026602;28;20196;-67
2022/09/21 07:52:20;;;;;;;0.60;0.60;;;7.70;99.90;;;;;;4995040;28;20192;-67
2022/09/21 07:54:45;;;;;;;0.70;0.70;;;7.90;99.90;;;;;;4994947;28;20246;-68
2022/09/21 07:59:57;;;;;;;2.05;1.27;;;8.20;99.90;;;;;;5004236;28;20206;-68
2022/09/21 08:02:23;;;;;;;0.70;0.70;;;8.30;99.90;;;;;;5014259;28;20226;-68
2022/09/21 08:04:48;;;;;;;0.75;0.75;;;8.30;99.90;;;;;;5014295;28;20241;-68
2022/09/21 08:07:14;;;;;;;0.60;0.60;;;8.30;99.90;;;;;;5014342;28;20244;-68
2022/09/21 08:09:40;;;;;;;0.60;0.60;;;8.40;99.90;;;;;;5014127;28;20202;-68
2022/09/21 08:12:06;;;;;;;0.60;0.60;;;8.50;99.90;;;;;;5014352;28;20298;-68
2022/09/21 08:14:32;;;;;;;0.60;0.60;;;8.70;99.90;;;;;;5045901;28;20260;-68
2022/09/21 08:16:58;;;;;;;0.60;0.60;;;9.50;99.90;;;;;;5013001;28;20209;-67
2022/09/21 08:19:26;;;;;;;0.70;0.70;;;9.90;99.90;;;;;;5013972;28;20679;-67
2022/09/21 08:21:52;;;;;;;0.73;0.73;;;10.20;99.90;;;;;;5013873;28;20194;-69
2022/09/21 08:24:19;;;;;;;0.73;0.73;;;10.20;99.90;;;;;;5014031;28;20242;-68
2022/09/21 08:26:45;;;;;;;0.60;0.60;;;10.40;99.90;;;;;;5013770;28;20194;-67
2022/09/21 08:29:13;;;;;;;0.60;0.60;;;10.50;99.90;;;;;;5013422;28;20191;-68
2022/09/21 08:31:39;;;;;;;0.70;0.70;;;10.60;99.90;;;;;;4994224;28;20659;-69
2022/09/21 08:34:04;;;;;;;0.75;0.75;;;10.70;99.90;;;;;;4994452;28;20717;-68
2022/09/21 08:36:31;;;;;;;0.60;0.60;;;10.80;99.90;;;;;;4994003;28;20195;-69
2022/09/21 08:38:56;;;;;;;0.60;0.60;;;11.00;99.90;;;;;;4994349;28;20198;-68
2022/09/21 08:41:24;;;;;;;0.60;0.60;;;11.30;99.90;;;;;;4994141;28;20493;-69
2022/09/21 08:43:53;;;;;;;0.50;0.50;;;11.60;99.90;;;;;;4993627;28;20677;-69
2022/09/21 08:46:25;;;;;;;0.50;0.50;;;11.70;99.90;;;;;;4993742;28;20195;-69
2022/09/21 08:49:05;;;;;;;0.63;0.63;;;11.90;99.90;;;;;;4994201;28;20202;-71
2022/09/21 08:51:35;;;;;;;2.58;0.98;;;12.30;99.90;;;;;;5009564;28;20682;-70
2022/09/21 08:54:14;;;;;;;0.60;0.60;;;12.50;99.90;;;;;;5025590;28;20261;-70
2022/09/21 08:56:39;;;;;;;0.50;0.50;;;12.80;99.90;;;;;;5006470;28;20206;-71
2022/09/21 08:59:11;;;;;;;0.50;0.50;;;13.00;99.90;;;;;;5012349;28;20199;-69
2022/09/21 09:01:49;;;;;;;0.68;0.68;;;13.30;99.90;;;;;;5013244;28;20191;-70
2022/09/21 09:04:21;;;;;;;0.52;0.52;;;13.40;99.90;;;;;;5013531;28;20217;-69
2022/09/21 09:07:05;;;;;;;0.40;0.40;;;13.70;99.90;;;;;;5013533;28;20222;-69
2022/09/21 09:10:06;;;;;;;0.60;0.60;;;13.90;99.90;;;;;;5013190;28;20217;-69
2022/09/21 09:12:46;;;;;;;0.40;0.40;;;14.00;99.90;;;;;;4982341;28;20246;-69
2022/09/21 09:15:33;;;;;;;0.50;0.50;;;14.10;99.90;;;;;;4993613;28;20195;-69
2022/09/21 09:18:06;;;;;;;1.35;0.80;;;14.30;99.90;;;;;;4993645;28;20195;-70
2022/09/21 09:20:40;;;;;;;0.50;0.50;;;14.50;99.90;;;;;;4993294;28;20195;-70
2022/09/21 09:23:16;;;;;;;1.05;0.50;;;14.70;99.90;;;;;;4993363;28;20707;-71
2022/09/21 09:25:45;;;;;;;0.40;0.40;;;15.00;99.90;;;;;;4993094;28;20313;-70
2022/09/21 09:28:35;;;;;;;0.40;0.40;;;15.20;99.90;;;;;;4993477;28;20200;-70
2022/09/21 09:31:17;;;;;;;0.40;0.40;;;15.50;99.90;;;;;;4992072;28;20275;-70
2022/09/21 09:34:06;;;;;;;0.30;0.30;;;15.70;99.90;;;;;;4993163;28;20195;-71
2022/09/21 09:36:32;;;;;;;0.35;0.35;;;15.80;99.90;;;;;;5008270;28;20701;-70
2022/09/21 09:39:13;;;;;;;0.50;0.50;;;16.00;99.90;;;;;;4992206;28;20658;-71
2022/09/21 09:41:59;;;;;;;0.40;0.40;;;16.10;99.90;;;;;;4993179;28;20199;-70
2022/09/21 09:45:00;;;;;;;0.30;0.30;;;16.10;99.90;;;;;;4994175;28;20203;-69
2022/09/21 09:48:01;;;;;;;0.32;0.32;;;16.30;99.90;;;;;;5012662;28;20198;-69
2022/09/21 09:50:28;;;;;;;0.30;0.30;;;16.60;99.90;;;;;;5012701;28;20195;-69
2022/09/21 09:53:24;;;;;;;2.08;0.52;;;16.80;99.90;;;;;;5011938;28;20194;-70
2022/09/21 09:55:53;;;;;;;0.50;0.50;;;17.00;99.90;;;;;;5013310;28;20678;-70
2022/09/21 09:58:20;;;;;;;0.30;0.30;;;17.20;99.90;;;;;;5016760;28;20197;-70
2022/09/21 10:00:49;;;;;;;0.50;0.50;;;17.40;99.90;;;;;;5016730;28;20542;-69
2022/09/21 10:03:23;;;;;;;0.30;0.30;;;17.70;99.90;;;;;;5016552;28;20237;-70
2022/09/21 10:05:49;;;;;;;0.30;0.30;;;17.90;99.90;;;;;;5016636;28;20191;-70
2022/09/21 10:08:28;;;;;;;2.72;0.80;;;17.60;99.90;;;;;;5016473;28;20233;-69
2022/09/21 10:10:54;;;;;;;0.30;0.30;;;17.40;99.90;;;;;;5016528;28;20210;-70
2022/09/21 10:13:38;;;;;;;0.30;0.30;;;17.40;99.90;;;;;;5016428;28;20203;-70
2022/09/21 10:16:08;;;;;;;0.20;0.20;;;17.40;99.90;;;;;;5016461;28;20219;-70
2022/09/21 10:18:47;;;;;;;0.30;0.30;;;17.80;99.90;;;;;;5016316;28;20658;-72
2022/09/21 10:21:46;;;;;;;0.20;0.20;;;18.00;99.90;;;;;;5016358;28;20186;-70
2022/09/21 10:24:28;;;;;;;0.30;0.30;;;18.00;99.90;;;;;;4995426;28;20243;-70
2022/09/21 10:27:14;;;;;;;0.20;0.20;;;18.20;99.90;;;;;;4995297;28;20547;-70
2022/09/21 10:29:45;;;;;;;0.77;0.50;;;18.20;99.90;;;;;;4996473;28;20286;-70
2022/09/21 10:32:11;;;;;;;0.47;0.47;;;18.00;99.90;;;;;;4996548;28;20204;-71
2022/09/21 10:34:39;;;;;;;0.20;0.20;;;18.20;99.90;;;;;;4996288;28;20191;-70
2022/09/21 10:37:28;;;;;;;0.20;0.20;;;18.30;99.90;;;;;;4996469;28;20199;-71
2022/09/21 10:39:54;;;;;;;0.20;0.20;;;18.50;99.90;;;;;;4996516;28;20192;-71
2022/09/21 10:42:20;;;;;;;0.30;0.30;;;18.60;99.90;;;;;;4994889;28;20227;-69
2022/09/21 10:44:49;;;;;;;0.20;0.20;;;18.70;99.90;;;;;;5005079;28;20215;-69
2022/09/21 10:47:40;;;;;;;0.20;0.20;;;18.70;99.90;;;;;;5015842;28;20269;-70
2022/09/21 10:50:27;;;;;;;2.55;0.90;;;19.00;99.90;;;;;;5005817;28;20218;-70
2022/09/21 10:53:21;;;;;;;1.50;0.60;;;19.00;99.90;;;;;;5015741;28;20195;-70
2022/09/21 10:56:17;;;;;;;0.20;0.20;;;19.00;99.90;;;;;;5011688;28;20222;-70
2022/09/21 10:59:10;;;;;;;0.20;0.20;;;19.20;99.90;;;;;;5014118;28;20198;-70
2022/09/21 11:01:36;;;;;;;0.20;0.20;;;20.00;99.90;;;;;;5015355;28;20191;-69
2022/09/21 11:04:10;;;;;;;0.20;0.20;;;20.50;99.90;;;;;;5015311;28;20678;-70
2022/09/21 11:07:03;;;;;;;0.20;0.20;;;20.50;99.90;;;;;;5015319;28;20198;-70
2022/09/21 11:09:40;;;;;;;0.30;0.30;;;20.90;99.90;;;;;;5014977;28;20221;-70
2022/09/21 11:12:30;;;;;;;0.30;0.30;;;21.30;99.90;;;;;;5015421;28;20199;-71
2022/09/21 11:14:59;;;;;;;0.20;0.20;;;21.30;99.90;;;;;;5015371;28;20598;-70
2022/09/21 11:17:33;;;;;;;0.20;0.20;;;21.50;99.90;;;;;;5015132;28;20199;-70
2022/09/21 11:20:19;;;;;;;0.20;0.20;;;21.80;99.90;;;;;;5015116;28;20207;-70
2022/09/21 11:22:58;;;;;;;0.20;0.20;;;21.80;98.70;;;;;;5014999;28;20230;-70
2022/09/21 11:25:52;;;;;;;0.20;0.20;;;21.70;99.20;;;;;;5014896;28;20207;-69
2022/09/21 11:28:22;;;;;;;0.20;0.20;;;21.50;99.90;;;;;;5015209;28;20225;-71
2022/09/21 11:31:00;;;;;;;0.10;0.10;;;21.60;99.90;;;;;;5014953;28;20205;-71
2022/09/21 11:33:48;;;;;;;0.20;0.20;;;21.70;99.20;;;;;;5046545;28;20289;-70
2022/09/21 11:36:37;;;;;;;0.10;0.10;;;21.60;99.90;;;;;;5029998;28;20566;-70
2022/09/21 11:39:21;;;;;;;0.10;0.10;;;21.30;98.20;;;;;;5004962;28;20230;-71
2022/09/21 11:42:19;;;;;;;0.20;0.20;;;21.00;98.40;;;;;;5010205;28;20242;-70
2022/09/21 11:44:54;;;;;;;0.20;0.20;;;21.20;99.20;;;;;;5003481;28;20213;-71
2022/09/21 11:47:45;;;;;;;0.40;0.30;;;21.40;99.90;;;;;;5014533;28;20194;-70
2022/09/21 11:50:26;;;;;;;0.20;0.20;;;21.50;99.90;;;;;;5014703;28;20699;-71
2022/09/21 11:53:30;;;;;;;0.20;0.20;;;21.50;99.90;;;;;;5046484;28;20207;-71
2022/09/21 11:56:24;;;;;;;0.20;0.20;;;21.40;98.30;;;;;;4995421;28;20207;-71
2022/09/21 11:59:08;;;;;;;0.20;0.20;;;20.90;95.90;;;;;;5014356;28;20658;-70
2022/09/21 12:01:37;;;;;;;0.30;0.30;;;20.40;99.90;;;;;;5014165;28;20187;-70
2022/09/21 12:04:22;;;;;;;0.32;0.32;;;20.20;98.60;;;;;;5014123;28;20217;-70
2022/09/21 12:07:09;;;;;;;0.20;0.20;;;20.50;99.50;;;;;;5029663;28;20609;-71
2022/09/21 12:10:00;;;;;;;0.20;0.20;;;20.70;96.20;;;;;;5014161;28;20190;-70
2022/09/21 12:12:55;;;;;;;0.20;0.20;;;20.80;99.10;;;;;;5014143;28;20197;-71
2022/09/21 12:15:55;;;;;;;0.30;0.30;;;20.90;98.60;;;;;;5016576;28;20287;-71
2022/09/21 12:18:58;;;;;;;0.20;0.20;;;21.30;98.80;;;;;;4993262;28;20641;-71
2022/09/21 12:21:29;;;;;;;0.10;0.10;;;21.40;99.20;;;;;;4994185;28;20223;-71
2022/09/21 12:24:12;;;;;;;0.20;0.20;;;21.70;97.90;;;;;;4994738;28;20386;-71
2022/09/21 12:26:43;;;;;;;0.20;0.20;;;21.90;97.70;;;;;;4994241;28;20206;-72
2022/09/21 12:29:18;;;;;;;0.10;0.10;;;21.70;97.30;;;;;;4994490;28;20192;-71
2022/09/21 12:32:06;;;;;;;1.35;0.30;;;21.50;97.20;;;;;;4994280;28;20650;-71
2022/09/21 12:34:46;;;;;;;0.20;0.20;;;21.20;95.80;;;;;;4994027;28;20675;-71
2022/09/21 12:37:21;;;;;;;0.22;0.22;;;21.00;95.40;;;;;;5025656;28;20269;-71
2022/09/21 12:40:07;;;;;;;0.40;0.40;;;20.70;92.60;;;;;;5009214;28;20203;-71
2022/09/21 12:42:48;;;;;;;0.20;0.20;;;20.50;97.00;;;;;;4993937;28;20195;-71
2022/09/21 12:45:18;;;;;;;0.20;0.20;;;20.40;98.00;;;;;;5006675;28;20206;-71
2022/09/21 12:47:59;;;;;;;0.55;0.35;;;20.40;98.40;;;;;;5013471;28;20199;-70
2022/09/21 12:50:39;;;;;;;0.20;0.20;;;20.50;99.10;;;;;;5013467;28;20211;-71
2022/09/21 12:53:09;;;;;;;0.13;0.13;;;20.70;95.70;;;;;;5013523;28;20388;-70
2022/09/21 12:56:15;;;;;;;0.30;0.30;;;20.50;94.60;;;;;;5013178;28;20229;-71
2022/09/21 12:58:53;;;;;;;0.32;0.32;;;20.20;94.50;;;;;;5028473;28;20202;-71
2022/09/21 13:01:26;;;;;;;0.20;0.20;;;20.10;97.90;;;;;;4993674;28;20192;-71
2022/09/21 13:04:11;;;;;;;0.20;0.20;;;20.10;95.80;;;;;;4993750;28;20666;-71
2022/09/21 13:07:08;;;;;;;0.20;0.20;;;19.60;95.70;;;;;;4993616;28;20570;-70
2022/09/21 13:09:40;;;;;;;0.63;0.30;;;19.20;99.20;;;;;;4993459;28;20227;-71
2022/09/21 13:12:20;;;;;;;0.20;0.20;;;19.20;99.90;;;;;;4993496;28;20211;-71
2022/09/21 13:14:51;;;;;;;0.20;0.20;;;19.50;99.90;;;;;;4993570;28;20187;-71
2022/09/21 13:17:26;;;;;;;0.20;0.20;;;19.70;99.90;;;;;;4993590;28;20282;-71
2022/09/21 13:20:23;;;;;;;0.20;0.20;;;19.60;98.40;;;;;;4993556;28;20644;-71
2022/09/21 13:23:00;;;;;;;0.20;0.20;;;19.50;99.90;;;;;;4993247;28;20242;-71
2022/09/21 13:25:28;;;;;;;0.20;0.20;;;19.40;98.60;;;;;;4991894;28;20215;-70
2022/09/21 13:28:12;;;;;;;0.20;0.20;;;19.00;99.00;;;;;;4992091;28;20207;-71